createdAt,value
2022-10-25T00:00:15.387Z,73.53
2022-10-25T00:01:18.405Z,73.56
2022-10-25T00:02:17.734Z,74.21
2022-10-25T00:03:14.519Z,74.79
2022-10-25T00:04:11.298Z,75.48
2022-10-25T00:05:11.679Z,75.42
2022-10-25T00:06:12.354Z,75.54
2022-10-25T00:07:09.379Z,75.56
2022-10-25T00:08:06.477Z,75.97
2022-10-25T00:09:03.469Z,76.00
2022-10-25T00:10:00.047Z,75.09
2022-10-25T00:10:56.639Z,74.67
2022-10-25T00:11:53.238Z,74.56
2022-10-25T00:12:50.174Z,74.58
2022-10-25T00:13:50.031Z,74.42
2022-10-25T00:14:46.805Z,74.46
2022-10-25T00:15:43.549Z,74.20
2022-10-25T00:16:40.134Z,74.66
2022-10-25T00:17:36.749Z,74.94
2022-10-25T00:18:33.610Z,75.03
2022-10-25T00:19:30.163Z,74.54
2022-10-25T00:20:26.848Z,74.74
2022-10-25T00:21:23.959Z,74.91
2022-10-25T00:22:20.653Z,74.91
2022-10-25T00:23:17.252Z,75.48
2022-10-25T00:24:14.725Z,75.91
2022-10-25T00:25:11.695Z,75.91
2022-10-25T00:26:10.053Z,75.97
2022-10-25T00:27:06.742Z,75.94
2022-10-25T00:28:03.326Z,75.56
2022-10-25T00:28:59.976Z,74.93
2022-10-25T00:29:56.582Z,74.86
2022-10-25T00:31:00.784Z,74.67
2022-10-25T00:31:57.351Z,74.42
2022-10-25T00:32:54.538Z,74.22
2022-10-25T00:33:51.722Z,73.79
2022-10-25T00:34:48.438Z,74.39
2022-10-25T00:35:44.987Z,74.63
2022-10-25T00:36:41.535Z,74.34
2022-10-25T00:37:38.117Z,73.60
2022-10-25T00:38:35.471Z,73.18
2022-10-25T00:39:32.014Z,73.27
2022-10-25T00:40:28.597Z,73.63
2022-10-25T00:41:29.181Z,74.12
2022-10-25T00:42:27.540Z,74.07
2022-10-25T00:43:37.937Z,74.28
2022-10-25T00:44:40.502Z,74.66
2022-10-25T00:45:37.729Z,75.22
2022-10-25T00:46:34.347Z,75.63
2022-10-25T00:47:39.868Z,75.17
2022-10-25T00:48:36.707Z,74.88
2022-10-25T00:49:34.506Z,75.09
2022-10-25T00:50:50.808Z,74.62
2022-10-25T00:52:07.466Z,74.05
2022-10-25T00:53:13.056Z,73.51
2022-10-25T00:54:13.058Z,73.59
2022-10-25T00:55:11.035Z,74.00
2022-10-25T00:56:19.714Z,74.14
2022-10-25T00:57:21.784Z,73.81
2022-10-25T00:58:22.365Z,73.88
2022-10-25T00:59:24.534Z,73.88
2022-10-25T01:00:22.074Z,73.78
2022-10-25T01:01:19.108Z,73.60
2022-10-25T01:02:18.342Z,74.41
2022-10-25T01:03:17.802Z,74.44
2022-10-25T01:04:17.336Z,73.85
2022-10-25T01:05:15.404Z,74.54
2022-10-25T01:06:23.358Z,74.73
2022-10-25T01:07:20.027Z,74.72
2022-10-25T01:08:20.065Z,74.17
2022-10-25T01:09:23.857Z,73.74
2022-10-25T01:10:20.555Z,74.30
2022-10-25T01:12:18.904Z,75.29
2022-10-25T01:13:15.756Z,75.59
2022-10-25T01:14:15.310Z,75.66
2022-10-25T01:15:12.432Z,75.68
2022-10-25T01:16:11.757Z,75.38
2022-10-25T01:17:20.021Z,74.96
2022-10-25T01:18:27.784Z,75.53
2022-10-25T01:19:36.498Z,76.10
2022-10-25T01:21:12.107Z,76.61
2022-10-25T01:22:35.062Z,76.15
2022-10-25T01:23:34.429Z,76.29
2022-10-25T01:24:49.020Z,75.82
2022-10-25T01:26:03.803Z,75.81
2022-10-25T01:27:29.258Z,76.05
2022-10-25T01:29:03.661Z,75.85
2022-10-25T01:30:08.743Z,75.59
2022-10-25T01:31:40.820Z,75.79
2022-10-25T01:32:49.146Z,76.83
2022-10-25T01:34:03.971Z,77.19
2022-10-25T01:35:16.288Z,76.96
2022-10-25T01:36:37.077Z,77.38
2022-10-25T01:37:51.997Z,77.62
2022-10-25T01:38:57.696Z,77.82
2022-10-25T01:40:00.544Z,77.33
2022-10-25T01:41:04.237Z,76.99
2022-10-25T01:42:14.219Z,77.39
2022-10-25T01:43:17.431Z,77.74
2022-10-25T01:44:28.937Z,77.49
2022-10-25T01:45:34.952Z,77.81
2022-10-25T01:46:40.722Z,78.28
2022-10-25T01:47:58.808Z,78.50
2022-10-25T01:49:13.274Z,78.49
2022-10-25T01:50:31.663Z,78.37
2022-10-25T01:51:31.503Z,78.43
2022-10-25T01:52:28.454Z,78.50
2022-10-25T01:53:25.049Z,78.21
2022-10-25T01:54:27.548Z,78.10
2022-10-25T01:55:50.235Z,77.24
2022-10-25T01:57:11.699Z,77.72
2022-10-25T01:58:17.540Z,77.40
2022-10-25T01:59:38.862Z,77.13
2022-10-25T02:00:48.206Z,78.39
2022-10-25T02:02:10.653Z,78.46
2022-10-25T02:03:31.151Z,77.98
2022-10-25T02:04:54.982Z,77.51
2022-10-25T02:06:29.908Z,77.56
2022-10-25T02:07:35.475Z,78.28
2022-10-25T02:08:46.845Z,78.58
2022-10-25T02:09:52.486Z,78.51
2022-10-25T02:10:59.521Z,78.83
2022-10-25T02:11:59.447Z,78.95
2022-10-25T02:13:18.268Z,78.33
2022-10-25T02:14:27.074Z,78.09
2022-10-25T02:15:50.971Z,78.39
2022-10-25T02:16:56.545Z,78.42
2022-10-25T02:17:59.181Z,78.36
2022-10-25T02:19:03.068Z,78.50
2022-10-25T02:20:02.781Z,78.88
2022-10-25T02:21:01.638Z,79.62
2022-10-25T02:22:01.374Z,80.02
2022-10-25T02:23:01.154Z,79.79
2022-10-25T02:24:00.156Z,80.00
2022-10-25T02:24:58.205Z,80.85
2022-10-25T02:25:55.499Z,81.11
2022-10-25T02:26:54.443Z,80.38
2022-10-25T02:27:53.843Z,79.66
2022-10-25T02:28:51.366Z,79.25
2022-10-25T02:29:49.348Z,79.71
2022-10-25T02:30:45.944Z,80.06
2022-10-25T02:31:43.902Z,78.85
2022-10-25T02:32:40.521Z,78.42
2022-10-25T02:33:37.998Z,78.49
2022-10-25T02:34:34.670Z,79.00
2022-10-25T02:35:31.432Z,80.37
2022-10-25T02:36:28.009Z,80.07
2022-10-25T02:37:24.649Z,79.30
2022-10-25T02:38:21.248Z,78.73
2022-10-25T02:39:19.837Z,78.08
2022-10-25T02:40:16.622Z,78.63
2022-10-25T02:41:13.825Z,78.78
2022-10-25T02:42:10.424Z,79.78
2022-10-25T02:43:06.989Z,79.93
2022-10-25T02:44:03.748Z,79.97
2022-10-25T02:45:00.325Z,79.90
2022-10-25T02:45:56.883Z,80.20
2022-10-25T02:46:53.547Z,80.13
2022-10-25T02:47:50.236Z,79.61
2022-10-25T02:48:47.736Z,79.07
2022-10-25T02:49:44.396Z,78.83
2022-10-25T02:50:40.942Z,78.47
2022-10-25T02:51:37.860Z,78.16
2022-10-25T02:52:34.522Z,78.05
2022-10-25T02:53:31.244Z,78.48
2022-10-25T02:54:27.859Z,78.97
2022-10-25T02:55:24.457Z,78.91
2022-10-25T02:56:22.430Z,79.33
2022-10-25T02:57:19.002Z,79.75
2022-10-25T02:58:15.562Z,79.40
2022-10-25T02:59:12.944Z,80.00
2022-10-25T03:00:10.362Z,79.96
2022-10-25T03:01:07.907Z,79.75
2022-10-25T03:02:04.567Z,79.85
2022-10-25T03:03:01.110Z,79.44
2022-10-25T03:03:57.795Z,79.68
2022-10-25T03:04:54.365Z,80.56
2022-10-25T03:05:51.568Z,80.59
2022-10-25T03:06:48.193Z,80.98
2022-10-25T03:07:44.786Z,80.51
2022-10-25T03:08:42.924Z,80.78
2022-10-25T03:09:39.537Z,81.01
2022-10-25T03:10:38.992Z,80.67
2022-10-25T03:11:35.566Z,80.83
2022-10-25T03:12:32.150Z,80.11
2022-10-25T03:13:28.712Z,80.11
2022-10-25T03:14:25.702Z,80.62
2022-10-25T03:15:22.407Z,80.02
2022-10-25T03:16:18.995Z,80.21
2022-10-25T03:17:15.620Z,80.29
2022-10-25T03:18:13.438Z,80.53
2022-10-25T03:19:10.028Z,79.50
2022-10-25T03:20:07.330Z,78.22
2022-10-25T03:21:05.474Z,78.01
2022-10-25T03:22:02.013Z,78.43
2022-10-25T03:22:58.643Z,78.56
2022-10-25T03:23:55.261Z,79.21
2022-10-25T03:24:51.832Z,78.77
2022-10-25T03:25:55.935Z,78.61
2022-10-25T03:26:52.556Z,78.44
2022-10-25T03:27:49.287Z,78.08
2022-10-25T03:28:46.144Z,78.09
2022-10-25T03:29:42.750Z,78.38
2022-10-25T03:30:42.521Z,78.43
2022-10-25T03:31:40.087Z,78.54
2022-10-25T03:32:36.979Z,77.94
2022-10-25T03:33:33.613Z,76.67
2022-10-25T03:34:30.169Z,76.17
2022-10-25T03:35:26.885Z,76.52
2022-10-25T03:36:23.504Z,77.81
2022-10-25T03:37:20.047Z,78.38
2022-10-25T03:38:16.794Z,78.49
2022-10-25T03:39:13.498Z,78.95
2022-10-25T03:40:10.622Z,79.11
2022-10-25T03:41:07.281Z,79.09
2022-10-25T03:42:04.020Z,79.29
2022-10-25T03:43:00.647Z,78.95
2022-10-25T03:43:57.222Z,78.98
2022-10-25T03:44:53.984Z,78.88
2022-10-25T03:45:50.543Z,79.18
2022-10-25T03:46:47.178Z,79.24
2022-10-25T03:47:44.565Z,79.46
2022-10-25T03:48:41.500Z,79.95
2022-10-25T03:49:38.119Z,80.39
2022-10-25T03:50:36.089Z,80.54
2022-10-25T03:51:32.762Z,80.75
2022-10-25T03:52:29.340Z,81.07
2022-10-25T03:53:25.892Z,81.47
2022-10-25T03:54:24.413Z,81.44
2022-10-25T03:55:23.532Z,81.77
2022-10-25T03:56:20.147Z,81.70
2022-10-25T03:57:17.039Z,81.18
2022-10-25T03:58:13.782Z,80.75
2022-10-25T03:59:10.367Z,81.25
2022-10-25T04:00:07.642Z,81.03
2022-10-25T04:01:04.321Z,80.91
2022-10-25T04:02:01.549Z,80.97
2022-10-25T04:03:02.016Z,80.58
2022-10-25T04:03:59.168Z,80.78
2022-10-25T04:04:55.803Z,81.05
2022-10-25T04:05:52.372Z,79.52
2022-10-25T04:06:49.006Z,78.69
2022-10-25T04:07:45.944Z,79.29
2022-10-25T04:08:42.725Z,79.86
2022-10-25T04:09:39.289Z,79.09
2022-10-25T04:10:36.123Z,78.65
2022-10-25T04:11:32.819Z,79.48
2022-10-25T04:12:29.398Z,80.23
2022-10-25T04:13:25.984Z,81.03
2022-10-25T04:14:22.593Z,81.39
2022-10-25T04:15:19.480Z,81.60
2022-10-25T04:16:19.060Z,81.53
2022-10-25T04:17:15.912Z,81.92
2022-10-25T04:18:12.548Z,81.81
2022-10-25T04:19:09.154Z,81.89
2022-10-25T04:20:06.355Z,81.91
2022-10-25T04:21:03.723Z,81.58
2022-10-25T04:22:02.265Z,81.46
2022-10-25T04:22:58.831Z,81.63
2022-10-25T04:23:56.692Z,81.85
2022-10-25T04:24:54.859Z,82.44
2022-10-25T04:25:51.500Z,83.07
2022-10-25T04:26:48.762Z,82.94
2022-10-25T04:27:45.563Z,83.31
2022-10-25T04:28:42.272Z,83.89
2022-10-25T04:29:38.941Z,84.07
2022-10-25T04:30:38.073Z,84.26
2022-10-25T04:31:35.633Z,83.55
2022-10-25T04:32:32.202Z,83.16
2022-10-25T04:33:28.922Z,83.22
2022-10-25T04:34:25.489Z,83.41
2022-10-25T04:35:22.027Z,82.76
2022-10-25T04:36:18.867Z,82.60
2022-10-25T04:37:16.381Z,81.60
2022-10-25T04:38:12.940Z,81.85
2022-10-25T04:39:09.643Z,82.28
2022-10-25T04:40:07.077Z,81.56
2022-10-25T04:41:03.658Z,81.92
2022-10-25T04:42:00.261Z,82.29
2022-10-25T04:42:57.240Z,81.95
2022-10-25T04:43:53.886Z,82.55
2022-10-25T04:44:50.438Z,82.56
2022-10-25T04:45:47.015Z,82.40
2022-10-25T04:46:46.445Z,81.27
2022-10-25T04:47:45.340Z,79.93
2022-10-25T04:48:42.986Z,80.02
2022-10-25T04:49:39.626Z,79.77
2022-10-25T04:50:38.059Z,79.95
2022-10-25T04:51:34.755Z,80.68
2022-10-25T04:52:31.546Z,81.25
2022-10-25T04:53:28.262Z,80.95
2022-10-25T04:54:24.911Z,80.58
2022-10-25T04:55:21.507Z,80.95
2022-10-25T04:56:18.214Z,81.28
2022-10-25T04:57:14.763Z,80.97
2022-10-25T04:58:11.329Z,81.39
2022-10-25T04:59:09.382Z,81.54
2022-10-25T05:00:06.425Z,82.63
2022-10-25T05:01:08.735Z,83.04
2022-10-25T05:02:05.697Z,83.32
2022-10-25T05:03:02.333Z,83.33
2022-10-25T05:03:58.910Z,83.67
2022-10-25T05:04:55.501Z,83.51
2022-10-25T05:05:52.164Z,83.37
2022-10-25T05:06:48.715Z,82.63
2022-10-25T05:07:45.301Z,82.79
2022-10-25T05:08:46.995Z,82.21
2022-10-25T05:09:46.593Z,82.58
2022-10-25T05:10:44.415Z,82.67
2022-10-25T05:11:40.989Z,83.03
2022-10-25T05:12:38.053Z,83.65
2022-10-25T05:13:38.821Z,84.38
2022-10-25T05:14:35.442Z,84.18
2022-10-25T05:15:32.129Z,84.01
2022-10-25T05:16:28.820Z,84.53
2022-10-25T05:17:25.441Z,84.65
2022-10-25T05:18:22.222Z,84.79
2022-10-25T05:19:18.748Z,84.46
2022-10-25T05:20:15.430Z,84.25
2022-10-25T05:21:13.659Z,84.81
2022-10-25T05:22:10.457Z,84.72
2022-10-25T05:23:06.979Z,84.88
2022-10-25T05:24:04.139Z,84.45
2022-10-25T05:25:00.728Z,84.28
2022-10-25T05:26:21.195Z,84.24
2022-10-25T05:27:18.278Z,83.86
2022-10-25T05:28:14.899Z,83.41
2022-10-25T05:29:12.997Z,83.57
2022-10-25T05:30:10.738Z,83.24
2022-10-25T05:31:16.409Z,82.84
2022-10-25T05:32:13.260Z,83.15
2022-10-25T05:33:10.434Z,82.91
2022-10-25T05:34:07.678Z,82.66
2022-10-25T05:35:04.690Z,81.15
2022-10-25T05:36:03.214Z,81.71
2022-10-25T05:36:59.887Z,81.49
2022-10-25T05:37:56.452Z,81.12
2022-10-25T05:38:53.004Z,81.19
2022-10-25T05:39:49.778Z,81.37
2022-10-25T05:40:53.773Z,81.39
2022-10-25T05:41:50.914Z,81.08
2022-10-25T05:42:47.695Z,80.93
2022-10-25T05:43:45.579Z,80.54
2022-10-25T05:44:42.228Z,79.96
2022-10-25T05:45:38.833Z,79.82
2022-10-25T05:46:35.746Z,80.06
2022-10-25T05:47:32.310Z,79.72
2022-10-25T05:48:28.926Z,79.28
2022-10-25T05:49:25.495Z,78.96
2022-10-25T05:50:22.075Z,79.08
2022-10-25T05:51:34.700Z,79.00
2022-10-25T05:52:32.609Z,78.01
2022-10-25T05:53:29.210Z,77.57
2022-10-25T05:54:25.810Z,77.34
2022-10-25T05:55:22.366Z,76.95
2022-10-25T05:56:20.859Z,77.25
2022-10-25T05:57:17.501Z,77.07
2022-10-25T05:58:14.035Z,76.96
2022-10-25T05:59:14.735Z,77.14
2022-10-25T06:00:12.127Z,76.78
2022-10-25T06:01:16.953Z,76.24
2022-10-25T06:02:13.675Z,76.12
2022-10-25T06:03:10.309Z,75.84
2022-10-25T06:04:07.671Z,75.46
2022-10-25T06:05:04.472Z,75.62
2022-10-25T06:06:02.625Z,75.10
2022-10-25T06:06:59.262Z,75.22
2022-10-25T06:07:55.908Z,75.17
2022-10-25T06:08:57.532Z,75.25
2022-10-25T06:09:54.139Z,75.48
2022-10-25T06:10:50.734Z,75.27
2022-10-25T06:11:47.298Z,75.03
2022-10-25T06:12:43.923Z,74.83
2022-10-25T06:13:40.948Z,74.67
2022-10-25T06:14:37.503Z,74.72
2022-10-25T06:15:34.092Z,74.80
2022-10-25T06:16:31.097Z,75.37
2022-10-25T06:17:27.648Z,75.29
2022-10-25T06:18:24.741Z,74.70
2022-10-25T06:19:21.339Z,73.79
2022-10-25T06:20:17.896Z,72.92
2022-10-25T06:21:17.646Z,72.86
2022-10-25T06:22:14.195Z,72.84
2022-10-25T06:23:11.262Z,71.96
2022-10-25T06:24:09.318Z,72.13
2022-10-25T06:25:06.421Z,71.37
2022-10-25T06:26:06.825Z,70.48
2022-10-25T06:27:03.488Z,70.58
2022-10-25T06:28:00.059Z,70.43
2022-10-25T06:28:58.907Z,70.31
2022-10-25T06:29:55.456Z,70.41
2022-10-25T06:30:52.004Z,70.52
2022-10-25T06:31:49.689Z,70.89
2022-10-25T06:32:46.505Z,70.45
2022-10-25T06:33:43.850Z,70.50
2022-10-25T06:34:40.486Z,70.65
2022-10-25T06:35:37.068Z,70.44
2022-10-25T06:36:33.775Z,70.14
2022-10-25T06:37:30.544Z,70.04
2022-10-25T06:38:27.780Z,70.36
2022-10-25T06:39:24.360Z,70.57
2022-10-25T06:40:23.524Z,70.51
2022-10-25T06:41:22.896Z,69.40
2022-10-25T06:42:19.515Z,68.93
2022-10-25T06:43:16.137Z,69.43
2022-10-25T06:44:12.749Z,69.36
2022-10-25T06:45:09.736Z,68.58
2022-10-25T06:46:11.423Z,69.03
2022-10-25T06:47:23.155Z,69.03
2022-10-25T06:48:20.237Z,68.82
2022-10-25T06:49:16.788Z,68.72
2022-10-25T06:50:13.443Z,68.43
2022-10-25T06:51:10.002Z,67.48
2022-10-25T06:52:06.635Z,67.25
2022-10-25T06:53:03.198Z,67.71
2022-10-25T06:54:01.499Z,67.64
2022-10-25T06:54:58.077Z,67.71
2022-10-25T06:55:54.639Z,67.48
2022-10-25T06:56:51.185Z,67.65
2022-10-25T06:57:47.726Z,67.48
2022-10-25T06:58:44.785Z,67.54
2022-10-25T06:59:41.365Z,67.60
2022-10-25T07:00:37.935Z,67.96
2022-10-25T07:01:34.681Z,68.13
2022-10-25T07:02:31.281Z,67.90
2022-10-25T07:03:30.787Z,67.97
2022-10-25T07:04:27.327Z,67.78
2022-10-25T07:05:24.357Z,68.20
2022-10-25T07:06:29.527Z,68.41
2022-10-25T07:07:26.254Z,67.37
2022-10-25T07:08:23.145Z,66.98
2022-10-25T07:09:19.740Z,68.06
2022-10-25T07:10:16.514Z,68.37
2022-10-25T07:11:18.438Z,68.48
2022-10-25T07:12:14.991Z,68.73
2022-10-25T07:13:11.548Z,68.95
2022-10-25T07:14:09.324Z,68.96
2022-10-25T07:15:06.661Z,68.26
2022-10-25T07:16:05.050Z,67.52
2022-10-25T07:17:01.623Z,67.06
2022-10-25T07:17:58.235Z,66.68
2022-10-25T07:19:02.196Z,67.70
2022-10-25T07:19:58.743Z,68.60
2022-10-25T07:20:59.198Z,68.71
2022-10-25T07:21:55.802Z,68.49
2022-10-25T07:22:55.516Z,67.92
2022-10-25T07:23:55.708Z,67.16
2022-10-25T07:24:52.268Z,67.47
2022-10-25T07:25:48.818Z,67.69
2022-10-25T07:26:45.428Z,67.50
2022-10-25T07:27:42.058Z,67.50
2022-10-25T07:28:39.733Z,67.88
2022-10-25T07:29:36.297Z,67.64
2022-10-25T07:30:32.899Z,66.92
2022-10-25T07:31:32.002Z,66.66
2022-10-25T07:32:28.628Z,66.90
2022-10-25T07:33:25.176Z,66.30
2022-10-25T07:34:21.735Z,65.83
2022-10-25T07:35:18.302Z,66.02
2022-10-25T07:36:14.875Z,65.56
2022-10-25T07:37:11.481Z,65.79
2022-10-25T07:38:08.038Z,65.37
2022-10-25T07:39:04.719Z,64.84
2022-10-25T07:40:01.263Z,64.56
2022-10-25T07:40:58.883Z,63.11
2022-10-25T07:41:55.446Z,63.79
2022-10-25T07:42:52.106Z,64.86
2022-10-25T07:43:48.855Z,65.50
2022-10-25T07:45:42.940Z,64.23
2022-10-25T07:46:39.467Z,63.78
2022-10-25T07:47:36.082Z,64.05
2022-10-25T07:48:33.385Z,63.53
2022-10-25T07:49:29.912Z,63.59
2022-10-25T07:50:26.469Z,62.84
2022-10-25T07:51:23.179Z,62.15
2022-10-25T07:52:20.514Z,61.26
2022-10-25T07:53:17.320Z,61.35
2022-10-25T07:54:13.940Z,61.72
2022-10-25T07:55:10.496Z,61.66
2022-10-25T07:56:08.201Z,62.47
2022-10-25T07:57:06.424Z,62.19
2022-10-25T07:58:05.732Z,62.02
2022-10-25T07:59:02.331Z,61.65
2022-10-25T07:59:59.101Z,61.70
2022-10-25T08:01:04.097Z,61.20
2022-10-25T08:02:00.701Z,61.20
2022-10-25T08:02:57.558Z,61.03
2022-10-25T08:03:55.180Z,61.98
2022-10-25T08:04:54.214Z,61.95
2022-10-25T08:05:51.024Z,62.27
2022-10-25T08:06:47.608Z,62.07
2022-10-25T08:07:44.253Z,61.48
2022-10-25T08:08:41.024Z,61.42
2022-10-25T08:09:38.628Z,61.62
2022-10-25T08:10:35.478Z,61.80
2022-10-25T08:11:32.040Z,61.71
2022-10-25T08:12:28.588Z,61.45
2022-10-25T08:13:25.380Z,60.02
2022-10-25T08:15:19.595Z,60.59
2022-10-25T08:16:16.227Z,60.39
2022-10-25T08:17:12.815Z,59.54
2022-10-25T08:18:12.226Z,58.92
2022-10-25T08:19:08.810Z,58.86
2022-10-25T08:20:05.888Z,58.05
2022-10-25T08:21:04.435Z,58.09
2022-10-25T08:22:01.230Z,58.84
2022-10-25T08:22:59.206Z,58.24
2022-10-25T08:23:55.823Z,58.25
2022-10-25T08:24:52.467Z,58.19
2022-10-25T08:25:49.435Z,57.89
2022-10-25T08:26:46.270Z,57.97
2022-10-25T08:27:42.933Z,58.21
2022-10-25T08:28:39.691Z,57.59
2022-10-25T08:29:36.312Z,57.13
2022-10-25T08:30:32.932Z,57.10
2022-10-25T08:31:29.564Z,57.11
2022-10-25T08:32:26.193Z,56.98
2022-10-25T08:33:23.854Z,55.89
2022-10-25T08:34:20.506Z,55.92
2022-10-25T08:35:17.634Z,56.16
2022-10-25T08:36:14.262Z,56.13
2022-10-25T08:37:12.225Z,55.28
2022-10-25T08:38:08.778Z,55.04
2022-10-25T08:39:05.348Z,55.01
2022-10-25T08:40:02.103Z,55.21
2022-10-25T08:41:25.899Z,55.75
2022-10-25T08:42:40.937Z,54.54
2022-10-25T08:44:11.996Z,55.15
2022-10-25T08:45:22.987Z,55.06
2022-10-25T08:46:36.366Z,54.88
2022-10-25T08:47:40.756Z,55.54
2022-10-25T08:48:42.870Z,54.24
2022-10-25T08:50:11.037Z,54.58
2022-10-25T08:51:14.193Z,54.77
2022-10-25T08:52:22.019Z,55.41
2022-10-25T08:53:27.563Z,54.75
2022-10-25T08:54:29.351Z,55.28
2022-10-25T08:55:41.784Z,55.00
2022-10-25T08:57:10.690Z,53.98
2022-10-25T08:58:23.605Z,53.10
2022-10-25T08:59:26.017Z,53.77
2022-10-25T09:00:23.883Z,54.31
2022-10-25T09:01:32.153Z,54.82
2022-10-25T09:02:41.700Z,54.44
2022-10-25T09:04:37.940Z,53.96
2022-10-25T09:05:39.115Z,54.16
2022-10-25T09:06:47.659Z,53.35
2022-10-25T09:08:03.921Z,52.57
2022-10-25T09:09:20.282Z,51.51
2022-10-25T09:10:29.125Z,51.61
2022-10-25T09:11:48.862Z,52.17
2022-10-25T09:13:00.283Z,52.56
2022-10-25T09:14:05.157Z,51.23
2022-10-25T09:15:13.923Z,51.44
2022-10-25T09:16:16.556Z,51.28
2022-10-25T09:17:23.501Z,50.68
2022-10-25T09:18:29.884Z,50.88
2022-10-25T09:19:35.374Z,50.75
2022-10-25T09:20:41.517Z,51.07
2022-10-25T09:21:49.990Z,51.06
2022-10-25T09:22:49.298Z,50.98
2022-10-25T09:24:01.692Z,51.09
2022-10-25T09:25:08.642Z,50.75
2022-10-25T09:26:22.090Z,49.77
2022-10-25T09:27:34.699Z,49.44
2022-10-25T09:29:00.243Z,49.06
2022-10-25T09:30:07.314Z,49.00
2022-10-25T09:31:05.383Z,49.03
2022-10-25T09:32:05.358Z,48.20
2022-10-25T09:33:09.363Z,48.06
2022-10-25T09:34:09.026Z,47.96
2022-10-25T09:35:12.475Z,48.15
2022-10-25T09:36:10.784Z,48.11
2022-10-25T09:37:34.692Z,47.75
2022-10-25T09:38:40.697Z,48.02
2022-10-25T09:39:44.951Z,47.56
2022-10-25T09:41:25.499Z,47.31
2022-10-25T09:42:27.852Z,46.92
2022-10-25T09:43:33.981Z,46.82
2022-10-25T09:44:36.451Z,45.14
2022-10-25T09:45:44.515Z,45.57
2022-10-25T09:46:51.654Z,46.04
2022-10-25T09:47:54.845Z,45.72
2022-10-25T09:49:00.692Z,45.24
2022-10-25T09:50:37.338Z,46.11
2022-10-25T09:51:43.136Z,46.50
2022-10-25T09:52:51.863Z,47.38
2022-10-25T09:53:49.093Z,45.73
2022-10-25T09:55:09.269Z,45.34
2022-10-25T09:56:06.249Z,44.99
2022-10-25T09:57:03.703Z,45.23
2022-10-25T09:58:01.541Z,45.69
2022-10-25T09:59:01.286Z,46.06
2022-10-25T09:59:57.920Z,45.24
2022-10-25T10:00:57.657Z,45.45
2022-10-25T10:01:54.725Z,44.93
2022-10-25T10:02:51.610Z,44.93
2022-10-25T10:03:52.348Z,44.35
2022-10-25T10:04:52.398Z,43.54
2022-10-25T10:05:59.575Z,42.27
2022-10-25T10:07:02.621Z,42.38
2022-10-25T10:07:59.195Z,41.20
2022-10-25T10:09:07.783Z,40.61
2022-10-25T10:10:12.604Z,41.21
2022-10-25T10:11:15.985Z,42.00
2022-10-25T10:12:23.696Z,42.29
2022-10-25T10:13:38.895Z,42.80
2022-10-25T10:14:44.491Z,41.99
2022-10-25T10:15:57.148Z,41.22
2022-10-25T10:16:56.403Z,42.58
2022-10-25T10:18:21.777Z,41.96
2022-10-25T10:19:29.456Z,39.97
2022-10-25T10:20:26.144Z,40.32
2022-10-25T10:21:23.999Z,40.93
2022-10-25T10:22:21.254Z,37.15
2022-10-25T10:23:18.365Z,38.29
2022-10-25T10:24:23.229Z,38.95
2022-10-25T10:25:27.220Z,39.23
2022-10-25T10:26:51.596Z,38.94
2022-10-25T10:27:50.689Z,39.49
2022-10-25T10:29:07.801Z,39.22
2022-10-25T10:30:09.589Z,36.81
2022-10-25T10:31:08.212Z,38.27
2022-10-25T10:32:07.219Z,38.44
2022-10-25T10:33:04.695Z,38.84
2022-10-25T10:34:01.450Z,39.33
2022-10-25T10:34:58.794Z,40.25
2022-10-25T10:35:55.439Z,40.77
2022-10-25T10:37:14.353Z,41.50
2022-10-25T10:38:28.620Z,42.13
2022-10-25T10:39:25.203Z,42.04
2022-10-25T10:40:22.922Z,42.30
2022-10-25T10:41:29.489Z,42.99
2022-10-25T10:42:42.693Z,42.84
2022-10-25T10:43:39.952Z,43.45
2022-10-25T10:44:36.511Z,43.75
2022-10-25T10:45:33.989Z,43.49
2022-10-25T10:46:30.680Z,43.13
2022-10-25T10:47:35.197Z,43.93
2022-10-25T10:48:36.684Z,43.54
2022-10-25T10:49:42.795Z,43.41
2022-10-25T10:50:42.541Z,43.16
2022-10-25T10:51:44.915Z,42.85
2022-10-25T10:52:46.896Z,42.72
2022-10-25T10:53:43.744Z,43.26
2022-10-25T10:54:47.976Z,43.04
2022-10-25T10:55:53.057Z,42.91
2022-10-25T10:57:03.269Z,42.47
2022-10-25T10:58:19.859Z,41.53
2022-10-25T10:59:33.812Z,40.02
2022-10-25T11:00:33.219Z,41.38
2022-10-25T11:01:33.594Z,41.72
2022-10-25T11:02:40.973Z,41.44
2022-10-25T11:03:48.685Z,41.15
2022-10-25T11:04:56.756Z,41.25
2022-10-25T11:06:00.453Z,41.47
2022-10-25T11:07:14.244Z,40.82
2022-10-25T11:08:10.799Z,40.19
2022-10-25T11:09:10.189Z,39.83
2022-10-25T11:10:15.617Z,37.59
2022-10-25T11:11:21.331Z,38.01
2022-10-25T11:12:18.860Z,39.00
2022-10-25T11:13:19.812Z,39.18
2022-10-25T11:14:17.876Z,39.73
2022-10-25T11:15:15.077Z,40.18
2022-10-25T11:16:49.375Z,40.51
2022-10-25T11:17:55.479Z,39.38
2022-10-25T11:18:57.222Z,39.49
2022-10-25T11:20:07.899Z,38.82
2022-10-25T11:21:21.491Z,38.00
2022-10-25T11:23:13.138Z,38.71
2022-10-25T11:24:28.399Z,37.88
2022-10-25T11:25:27.823Z,38.26
2022-10-25T11:26:50.450Z,38.13
2022-10-25T11:27:52.070Z,38.71
2022-10-25T11:29:15.865Z,38.74
2022-10-25T11:30:23.844Z,37.86
2022-10-25T11:32:02.023Z,38.08
2022-10-25T11:33:07.579Z,38.26
2022-10-25T11:34:57.949Z,38.70
2022-10-25T11:36:06.490Z,38.26
2022-10-25T11:37:13.600Z,38.37
2022-10-25T11:38:10.122Z,37.54
2022-10-25T11:39:28.763Z,36.71
2022-10-25T11:40:54.767Z,37.85
2022-10-25T11:41:56.975Z,37.65
2022-10-25T11:43:10.434Z,36.90
2022-10-25T11:44:39.796Z,36.96
2022-10-25T11:45:43.063Z,36.13
2022-10-25T11:46:57.390Z,35.04
2022-10-25T11:48:17.227Z,34.86
2022-10-25T11:49:57.176Z,34.51
2022-10-25T11:51:24.593Z,34.75
2022-10-25T11:53:18.452Z,34.71
2022-10-25T11:54:41.002Z,35.90
2022-10-25T11:55:59.194Z,35.46
2022-10-25T11:57:14.074Z,35.99
2022-10-25T11:58:46.156Z,35.43
2022-10-25T11:59:48.824Z,35.83
2022-10-25T12:00:51.115Z,36.72
2022-10-25T12:02:11.857Z,36.36
2022-10-25T12:03:20.586Z,36.74
2022-10-25T12:04:48.249Z,36.24
2022-10-25T12:06:03.487Z,36.01
2022-10-25T12:07:17.859Z,35.65
2022-10-25T12:08:49.046Z,35.23
2022-10-25T12:10:03.814Z,35.69
2022-10-25T12:11:15.117Z,35.43
2022-10-25T12:12:19.037Z,35.67
2022-10-25T12:13:33.254Z,36.25
2022-10-25T12:14:36.372Z,35.91
2022-10-25T12:15:41.077Z,35.09
2022-10-25T12:16:38.666Z,34.91
2022-10-25T12:17:35.607Z,34.66
2022-10-25T12:18:37.069Z,33.32
2022-10-25T12:19:45.311Z,34.11
2022-10-25T12:20:45.437Z,33.67
2022-10-25T12:21:47.995Z,33.84
2022-10-25T12:22:47.875Z,34.64
2022-10-25T12:23:49.434Z,34.81
2022-10-25T12:24:59.893Z,35.19
2022-10-25T12:26:10.710Z,34.91
2022-10-25T12:27:10.482Z,34.22
2022-10-25T12:28:37.978Z,34.58
2022-10-25T12:29:42.109Z,34.47
2022-10-25T12:30:41.331Z,34.36
2022-10-25T12:31:45.902Z,34.69
2022-10-25T12:33:00.246Z,34.49
2022-10-25T12:34:04.471Z,34.56
2022-10-25T12:35:05.073Z,34.78
2022-10-25T12:36:10.633Z,34.54
2022-10-25T12:37:16.042Z,33.53
2022-10-25T12:38:18.606Z,34.83
2022-10-25T12:39:32.181Z,34.26
2022-10-25T12:40:29.472Z,34.28
2022-10-25T12:41:31.462Z,33.50
2022-10-25T12:42:51.677Z,33.84
2022-10-25T12:44:14.541Z,34.24
2022-10-25T12:45:23.284Z,33.72
2022-10-25T12:46:32.721Z,34.22
2022-10-25T12:47:55.604Z,33.55
2022-10-25T12:48:58.371Z,33.05
2022-10-25T12:50:01.318Z,33.33
2022-10-25T12:51:15.168Z,33.66
2022-10-25T12:52:22.462Z,33.54
2022-10-25T12:53:49.894Z,34.12
2022-10-25T12:54:56.091Z,32.84
2022-10-25T12:56:28.569Z,32.98
2022-10-25T12:57:47.592Z,32.84
2022-10-25T12:59:10.431Z,33.27
2022-10-25T13:01:30.205Z,33.20
2022-10-25T13:02:45.177Z,32.25
2022-10-25T13:04:11.170Z,31.88
2022-10-25T13:05:33.558Z,32.50
2022-10-25T13:06:34.698Z,32.52
2022-10-25T13:07:34.792Z,32.30
2022-10-25T13:08:32.442Z,32.00
2022-10-25T13:09:34.121Z,31.90
2022-10-25T13:10:41.744Z,32.65
2022-10-25T13:11:43.118Z,32.52
2022-10-25T13:12:39.891Z,32.34
2022-10-25T13:13:40.135Z,32.04
2022-10-25T13:14:46.578Z,31.84
2022-10-25T13:16:01.302Z,32.62
2022-10-25T13:17:16.267Z,32.20
2022-10-25T13:18:44.788Z,31.49
2022-10-25T13:20:00.805Z,31.73
2022-10-25T13:20:58.213Z,32.02
2022-10-25T13:21:54.782Z,32.11
2022-10-25T13:22:51.624Z,31.96
2022-10-25T13:23:59.916Z,32.44
2022-10-25T13:25:31.870Z,31.35
2022-10-25T13:26:32.061Z,31.64